Wetterdaten: Woche 27.03.23 - 02.04.23 (KW13)
Datum Zeit Temp. A. Feuchte A. Luftdruck Regen Wind Richtung Taupunkt Windchill
27.03.2023 00:00 4,8 C 91 % 1008 hPa 1,0 l/m 8,6 km/h (2 Bft) N 3,6 C 2,8 C
27.03.2023 01:00 3,7 C 91 % 1009 hPa 1,0 l/m 11,6 km/h (2 Bft) N-NO 2,4 C -0,4 C
27.03.2023 02:00 3,1 C 91 % 1010 hPa 0,5 l/m 13,0 km/h (3 Bft) N 1,8 C -2,1 C
27.03.2023 03:00 3,0 C 92 % 1011 hPa 1,0 l/m 7,9 km/h (2 Bft) N 1,8 C 0,3 C
27.03.2023 04:00 2,3 C 91 % 1012 hPa 1,0 l/m 4,4 km/h (1 Bft) N-NW 1,0 C 1,7 C
27.03.2023 05:00 2,3 C 92 % 1013 hPa 0,0 l/m 0,9 km/h (0 Bft) W-NW 1,2 C 2,3 C
27.03.2023 06:00 2,0 C 91 % 1014 hPa 0,0 l/m 5,7 km/h (1 Bft) N-NW 0,7 C -0,5 C
27.03.2023 07:00 1,2 C 90 % 1016 hPa 0,0 l/m 4,0 km/h (1 Bft) W-NW -0,3 C 0,4 C
27.03.2023 08:00 0,9 C 89 % 1017 hPa 0,0 l/m 0,2 km/h (0 Bft) W-NW -0,7 C 0,9 C
27.03.2023 09:00 1,9 C 87 % 1018 hPa 0,0 l/m 0,8 km/h (0 Bft) W-NW 0,0 C 1,9 C
27.03.2023 10:00 2,7 C 82 % 1018 hPa 0,0 l/m 2,1 km/h (1 Bft) W-NW -0,1 C 1,9 C
27.03.2023 11:00 3,5 C 77 % 1019 hPa 0,0 l/m 2,9 km/h (1 Bft) W-NW -0,2 C 3,0 C
27.03.2023 12:00 4,3 C 74 % 1019 hPa 0,0 l/m 2,5 km/h (1 Bft) W-NW -0,0 C 3,9 C
27.03.2023 13:00 5,2 C 68 % 1020 hPa 0,0 l/m 6,4 km/h (2 Bft) W-NW -0,2 C 3,4 C
27.03.2023 14:00 5,8 C 65 % 1020 hPa 0,0 l/m 5,6 km/h (1 Bft) W-NW -0,4 C 4,5 C
27.03.2023 15:00 6,5 C 64 % 1020 hPa 0,0 l/m 5,0 km/h (1 Bft) W-NW 0,1 C 5,7 C
27.03.2023 16:00 5,8 C 63 % 1021 hPa 0,0 l/m 4,8 km/h (1 Bft) W-NW -0,6 C 4,2 C
27.03.2023 17:00 4,1 C 73 % 1022 hPa 0,0 l/m 3,0 km/h (1 Bft) W-NW -0,4 C 3,3 C
27.03.2023 18:00 3,1 C 78 % 1022 hPa 0,0 l/m 0,0 km/h (0 Bft) W-NW -0,3 C 3,1 C
27.03.2023 19:00 2,8 C 78 % 1023 hPa 0,0 l/m 0,0 km/h (0 Bft) W-NW -0,8 C 2,8 C
27.03.2023 20:00 1,5 C 80 % 1024 hPa 0,0 l/m 0,7 km/h (0 Bft) W-NW -1,5 C 1,5 C
27.03.2023 21:00 0,6 C 83 % 1024 hPa 0,0 l/m 0,0 km/h (0 Bft) W-NW -1,9 C 0,6 C
27.03.2023 22:00 0,3 C 85 % 1024 hPa 0,0 l/m 0,0 km/h (0 Bft) W-NW -2,0 C 0,3 C
27.03.2023 23:00 0,3 C 85 % 1024 hPa 0,0 l/m 0,0 km/h (0 Bft) W-NW -1,9 C 0,3 C
28.03.2023 00:00 0,7 C 84 % 1024 hPa 0,0 l/m 0,7 km/h (0 Bft) W-NW -1,7 C 0,7 C
28.03.2023 01:00 0,9 C 83 % 1025 hPa 0,0 l/m 1,8 km/h (1 Bft) W-NW -1,7 C 0,3 C
28.03.2023 02:00 1,1 C 82 % 1025 hPa 0,0 l/m 1,6 km/h (1 Bft) W-NW -1,7 C 0,6 C
28.03.2023 03:00 1,2 C 81 % 1025 hPa 0,0 l/m 3,6 km/h (1 Bft) W-NW -1,7 C 0,0 C
28.03.2023 04:00 1,3 C 80 % 1025 hPa 0,0 l/m 2,1 km/h (1 Bft) W-NW -1,8 C 0,9 C
28.03.2023 05:00 1,1 C 81 % 1026 hPa 0,0 l/m 0,0 km/h (0 Bft) W-NW -1,8 C 1,1 C
28.03.2023 06:00 0,9 C 82 % 1026 hPa 0,0 l/m 0,7 km/h (0 Bft) W-NW -1,8 C 0,9 C
28.03.2023 07:00 0,9 C 83 % 1027 hPa 0,0 l/m 0,0 km/h (0 Bft) W-NW -1,6 C 0,9 C
28.03.2023 08:00 1,3 C 83 % 1028 hPa 0,0 l/m 0,0 km/h (0 Bft) W-NW -1,2 C 1,3 C
28.03.2023 09:00 2,2 C 82 % 1029 hPa 0,0 l/m 4,3 km/h (1 Bft) W-NW -0,5 C 1,2 C
28.03.2023 10:00 3,5 C 78 % 1029 hPa 0,0 l/m 2,3 km/h (1 Bft) W-NW -0,0 C 3,0 C
28.03.2023 11:00 3,5 C 75 % 1030 hPa 0,0 l/m 0,8 km/h (0 Bft) NW -0,6 C 3,5 C
28.03.2023 12:00 4,3 C 74 % 1030 hPa 0,0 l/m 2,3 km/h (1 Bft) W-NW 0,0 C 4,0 C
28.03.2023 13:00 5,3 C 68 % 1030 hPa 0,0 l/m 2,3 km/h (1 Bft) W-NW -0,1 C 5,0 C
28.03.2023 14:00 6,2 C 68 % 1030 hPa 0,0 l/m 0,3 km/h (0 Bft) W 0,7 C 6,2 C
28.03.2023 15:00 6,7 C 64 % 1029 hPa 0,0 l/m 1,0 km/h (0 Bft) W-NW 0,3 C 6,7 C
28.03.2023 16:00 6,6 C 60 % 1029 hPa 0,0 l/m 0,0 km/h (0 Bft) W-NW -0,7 C 6,6 C
28.03.2023 17:00 7,2 C 59 % 1029 hPa 0,0 l/m 0,0 km/h (0 Bft) W-NW -0,3 C 7,2 C
28.03.2023 18:00 6,9 C 60 % 1028 hPa 0,0 l/m 0,0 km/h (0 Bft) W-NW -0,2 C 6,9 C
28.03.2023 19:00 5,2 C 63 % 1028 hPa 0,0 l/m 0,0 km/h (0 Bft) W-NW -1,3 C 5,2 C
28.03.2023 20:00 3,3 C 66 % 1028 hPa 0,0 l/m 0,0 km/h (0 Bft) W-NW -2,4 C 3,3 C
28.03.2023 21:00 2,3 C 69 % 1027 hPa 0,0 l/m 0,0 km/h (0 Bft) W-NW -2,9 C 2,3 C
28.03.2023 22:00 2,2 C 71 % 1027 hPa 0,0 l/m 0,0 km/h (0 Bft) W-NW -2,6 C 2,2 C
28.03.2023 23:00 2,1 C 72 % 1026 hPa 0,0 l/m 0,0 km/h (0 Bft) W-NW -2,4 C 2,1 C
29.03.2023 00:00 2,3 C 72 % 1026 hPa 0,0 l/m 0,0 km/h (0 Bft) S -2,3 C 2,3 C
29.03.2023 01:00 2,4 C 71 % 1026 hPa 0,0 l/m 0,0 km/h (0 Bft) SO -2,3 C 2,4 C
29.03.2023 02:00 2,2 C 72 % 1025 hPa 0,0 l/m 0,0 km/h (0 Bft) SO -2,3 C 2,2 C
29.03.2023 03:00 2,6 C 71 % 1024 hPa 0,0 l/m 0,0 km/h (0 Bft) S-SO -2,1 C 2,6 C
29.03.2023 04:00 2,6 C 72 % 1024 hPa 0,0 l/m 0,0 km/h (0 Bft) S-SO -2,0 C 2,6 C
29.03.2023 05:00 2,8 C 73 % 1023 hPa 0,0 l/m 0,0 km/h (0 Bft) W-NW -1,5 C 2,8 C
29.03.2023 06:00 3,0 C 76 % 1023 hPa 0,0 l/m 0,0 km/h (0 Bft) N -0,9 C 3,0 C
29.03.2023 07:00 3,1 C 78 % 1023 hPa 0,0 l/m 0,0 km/h (0 Bft) N -0,4 C 3,1 C
29.03.2023 08:00 3,5 C 79 % 1022 hPa 0,0 l/m 0,0 km/h (0 Bft) S-SO 0,2 C 3,5 C
29.03.2023 09:00 4,5 C 79 % 1023 hPa 0,0 l/m 0,0 km/h (0 Bft) S-SO 1,2 C 4,5 C
29.03.2023 10:00 6,4 C 77 % 1022 hPa 0,0 l/m 0,0 km/h (0 Bft) S-SW 2,7 C 6,4 C
29.03.2023 11:00 8,7 C 72 % 1022 hPa 0,0 l/m 0,3 km/h (0 Bft) SW 3,9 C 8,7 C
29.03.2023 12:00 9,8 C 67 % 1022 hPa 0,0 l/m 0,8 km/h (0 Bft) S 4,0 C 9,8 C
29.03.2023 13:00 12,3 C 63 % 1021 hPa 0,0 l/m 0,0 km/h (0 Bft) W-SW 5,4 C 12,3 C
29.03.2023 14:00 12,6 C 63 % 1021 hPa 0,0 l/m 1,1 km/h (1 Bft) SW 5,6 C 12,6 C
29.03.2023 15:00 12,9 C 63 % 1020 hPa 0,0 l/m 0,0 km/h (0 Bft) W 6,1 C 12,9 C
29.03.2023 16:00 13,8 C 64 % 1020 hPa 0,0 l/m 0,0 km/h (0 Bft) W 7,1 C 13,8 C
29.03.2023 17:00 13,7 C 63 % 1020 hPa 0,0 l/m 0,0 km/h (0 Bft) W 6,7 C 13,7 C
29.03.2023 18:00 12,2 C 65 % 1020 hPa 0,0 l/m 1,0 km/h (0 Bft) SW 5,7 C 12,2 C
29.03.2023 19:00 11,1 C 67 % 1019 hPa 0,0 l/m 0,0 km/h (0 Bft) S-SW 5,2 C 11,1 C
29.03.2023 20:00 9,9 C 70 % 1019 hPa 0,0 l/m 0,0 km/h (0 Bft) S-SW 4,8 C 9,9 C
29.03.2023 21:00 9,9 C 71 % 1019 hPa 0,0 l/m 0,0 km/h (0 Bft) SW 4,9 C 9,9 C
29.03.2023 22:00 9,3 C 73 % 1018 hPa 0,0 l/m 0,0 km/h (0 Bft) S-SW 4,7 C 9,3 C
29.03.2023 23:00 9,8 C 74 % 1018 hPa 0,0 l/m 0,0 km/h (0 Bft) SW 5,4 C 9,8 C
30.03.2023 00:00 10,1 C 74 % 1017 hPa 0,0 l/m 0,0 km/h (0 Bft) SW 5,7 C 10,1 C
30.03.2023 01:00 10,1 C 75 % 1017 hPa 0,0 l/m 0,0 km/h (0 Bft) SO 5,9 C 10,1 C
30.03.2023 02:00 10,1 C 76 % 1016 hPa 0,0 l/m 0,0 km/h (0 Bft) S-SO 6,0 C 10,1 C
30.03.2023 03:00 10,2 C 77 % 1015 hPa 0,0 l/m 0,0 km/h (0 Bft) S-SW 6,3 C 10,2 C
30.03.2023 04:00 10,2 C 76 % 1015 hPa 0,0 l/m 0,0 km/h (0 Bft) SO 6,2 C 10,2 C
30.03.2023 05:00 9,4 C 77 % 1015 hPa 0,0 l/m 0,0 km/h (0 Bft) SO 5,6 C 9,4 C
30.03.2023 06:00 9,3 C 78 % 1014 hPa 0,0 l/m 0,0 km/h (0 Bft) S-SO 5,6 C 9,3 C
30.03.2023 07:00 10,6 C 77 % 1014 hPa 0,0 l/m 0,0 km/h (0 Bft) SW 6,7 C 10,6 C
30.03.2023 08:00 10,9 C 79 % 1013 hPa 0,0 l/m 1,7 km/h (1 Bft) SW 7,4 C 10,8 C
30.03.2023 09:00 12,2 C 80 % 1013 hPa 0,0 l/m 0,0 km/h (0 Bft) W 8,8 C 12,2 C
30.03.2023 10:00 12,1 C 79 % 1014 hPa 0,0 l/m 0,0 km/h (0 Bft) W-SW 8,4 C 12,1 C
30.03.2023 11:00 12,0 C 81 % 1014 hPa 0,0 l/m 0,5 km/h (0 Bft) W-SW 8,8 C 12,0 C
30.03.2023 12:00 13,8 C 79 % 1013 hPa 0,0 l/m 0,7 km/h (0 Bft) W 10,1 C 13,8 C
30.03.2023 13:00 15,4 C 74 % 1013 hPa 0,0 l/m 0,0 km/h (0 Bft) SO 10,7 C 15,4 C
30.03.2023 14:00 16,2 C 70 % 1012 hPa 0,0 l/m 2,4 km/h (1 Bft) S-SW 10,6 C 15,9 C
30.03.2023 15:00 17,1 C 63 % 1012 hPa 0,0 l/m 4,6 km/h (1 Bft) W 10,0 C 16,4 C
30.03.2023 16:00 12,4 C 71 % 1013 hPa 1,0 l/m 7,5 km/h (2 Bft) W-NW 7,3 C 11,1 C
30.03.2023 17:00 9,6 C 83 % 1013 hPa 0,0 l/m 0,7 km/h (0 Bft) N-NO 6,9 C 9,6 C
30.03.2023 18:00 10,7 C 84 % 1013 hPa 0,0 l/m 0,0 km/h (0 Bft) SW 8,1 C 10,7 C
30.03.2023 19:00 10,3 C 83 % 1014 hPa 0,0 l/m 0,0 km/h (0 Bft) SW 7,5 C 10,3 C
30.03.2023 20:00 9,5 C 84 % 1014 hPa 0,0 l/m 0,0 km/h (0 Bft) S-SW 6,9 C 9,5 C
30.03.2023 21:00 9,3 C 85 % 1014 hPa 0,0 l/m 0,0 km/h (0 Bft) W 6,9 C 9,3 C
30.03.2023 22:00 9,2 C 85 % 1015 hPa 0,0 l/m 0,0 km/h (0 Bft) W-SW 6,8 C 9,2 C
30.03.2023 23:00 9,1 C 85 % 1014 hPa 0,0 l/m 0,4 km/h (0 Bft) S-SW 6,8 C 9,1 C
31.03.2023 00:00 8,8 C 85 % 1014 hPa 0,0 l/m 0,0 km/h (0 Bft) S-SW 6,4 C 8,8 C
31.03.2023 01:00 8,0 C 85 % 1013 hPa 0,0 l/m 0,0 km/h (0 Bft) SO 5,6 C 8,0 C
31.03.2023 02:00 7,5 C 86 % 1013 hPa 0,0 l/m 0,2 km/h (0 Bft) S-SW 5,3 C 7,5 C
31.03.2023 03:00 8,3 C 87 % 1012 hPa 0,0 l/m 0,0 km/h (0 Bft) S-SW 6,3 C 8,3 C
31.03.2023 04:00 8,5 C 86 % 1011 hPa 0,0 l/m 0,0 km/h (0 Bft) W-NW 6,3 C 8,5 C
31.03.2023 05:00 8,6 C 86 % 1010 hPa 0,5 l/m 0,0 km/h (0 Bft) W-SW 6,4 C 8,6 C
31.03.2023 06:00 8,1 C 88 % 1009 hPa 0,5 l/m 0,0 km/h (0 Bft) S-SW 6,2 C 8,1 C
31.03.2023 07:00 8,1 C 89 % 1008 hPa 0,0 l/m 0,5 km/h (0 Bft) SW 6,5 C 8,1 C
31.03.2023 08:00 8,5 C 90 % 1007 hPa 0,0 l/m 0,0 km/h (0 Bft) S 7,0 C 8,5 C
31.03.2023 09:00 9,4 C 90 % 1007 hPa 0,0 l/m 0,0 km/h (0 Bft) S-SO 7,8 C 9,4 C
31.03.2023 10:00 10,0 C 88 % 1006 hPa 0,0 l/m 0,7 km/h (0 Bft) S 8,1 C 10,0 C
31.03.2023 11:00 10,1 C 86 % 1005 hPa 0,5 l/m 0,0 km/h (0 Bft) S 7,8 C 10,1 C
31.03.2023 12:00 9,2 C 87 % 1004 hPa 1,6 l/m 1,8 km/h (1 Bft) S-SO 7,2 C 8,7 C
31.03.2023 13:00 9,0 C 89 % 1004 hPa 0,5 l/m 0,0 km/h (0 Bft) S-SO 7,3 C 9,0 C
31.03.2023 14:00 11,2 C 89 % 1003 hPa 0,0 l/m 0,0 km/h (0 Bft) W-SW 9,4 C 11,2 C
31.03.2023 15:00 12,9 C 81 % 1003 hPa 0,5 l/m 1,5 km/h (1 Bft) W-NW 9,7 C 12,9 C
31.03.2023 16:00 11,4 C 78 % 1003 hPa 0,0 l/m 1,0 km/h (0 Bft) W 7,7 C 11,4 C
31.03.2023 17:00 11,4 C 76 % 1002 hPa 0,0 l/m 0,0 km/h (0 Bft) W 7,4 C 11,4 C
31.03.2023 18:00 11,4 C 76 % 1002 hPa 0,0 l/m 1,2 km/h (1 Bft) S-SW 7,3 C 11,3 C
31.03.2023 19:00 10,5 C 77 % 1003 hPa 0,0 l/m 0,0 km/h (0 Bft) SW 6,6 C 10,5 C
31.03.2023 20:00 9,1 C 82 % 1003 hPa 0,5 l/m 0,0 km/h (0 Bft) S-SW 6,2 C 9,1 C
31.03.2023 21:00 8,3 C 85 % 1003 hPa 0,0 l/m 0,0 km/h (0 Bft) S-SW 6,0 C 8,3 C
31.03.2023 22:00 8,1 C 88 % 1004 hPa 0,5 l/m 0,0 km/h (0 Bft) W 6,1 C 8,1 C
31.03.2023 23:00 7,8 C 88 % 1003 hPa 0,0 l/m 0,0 km/h (0 Bft) W 6,0 C 7,8 C
01.04.2023 00:00 7,6 C 89 % 1003 hPa 0,0 l/m 0,0 km/h (0 Bft) W 5,9 C 7,6 C
01.04.2023 01:00 7,6 C 90 % 1003 hPa 0,0 l/m 0,0 km/h (0 Bft) SW 6,1 C 7,6 C
01.04.2023 02:00 8,0 C 90 % 1003 hPa 0,0 l/m 0,0 km/h (0 Bft) W 6,4 C 8,0 C
01.04.2023 03:00 8,2 C 89 % 1003 hPa 0,0 l/m 0,0 km/h (0 Bft) W 6,5 C 8,2 C
01.04.2023 04:00 8,3 C 87 % 1003 hPa 0,0 l/m 0,0 km/h (0 Bft) W-SW 6,4 C 8,3 C
01.04.2023 05:00 8,1 C 87 % 1003 hPa 0,0 l/m 0,0 km/h (0 Bft) W 6,0 C 8,1 C
01.04.2023 06:00 8,3 C 86 % 1003 hPa 0,0 l/m 0,0 km/h (0 Bft) W 6,1 C 8,3 C
01.04.2023 07:00 8,5 C 85 % 1004 hPa 0,0 l/m 0,0 km/h (0 Bft) W-SW 6,1 C 8,5 C
01.04.2023 08:00 8,7 C 84 % 1004 hPa 0,0 l/m 0,0 km/h (0 Bft) S-SW 6,1 C 8,7 C
01.04.2023 09:00 8,8 C 85 % 1004 hPa 0,5 l/m 1,0 km/h (0 Bft) SW 6,4 C 8,8 C
01.04.2023 10:00 10,7 C 82 % 1004 hPa 0,0 l/m 0,0 km/h (0 Bft) S-SW 7,8 C 10,7 C
01.04.2023 11:00 11,0 C 80 % 1005 hPa 0,0 l/m 0,0 km/h (0 Bft) S-SW 7,6 C 11,0 C
01.04.2023 12:00 10,7 C 80 % 1005 hPa 0,0 l/m 2,8 km/h (1 Bft) S-SW 7,4 C 10,2 C
01.04.2023 13:00 10,4 C 82 % 1005 hPa 0,0 l/m 0,0 km/h (0 Bft) SW 7,5 C 10,4 C
01.04.2023 14:00 11,8 C 80 % 1005 hPa 0,0 l/m 0,0 km/h (0 Bft) S 8,5 C 11,8 C
01.04.2023 15:00 12,3 C 78 % 1005 hPa 0,0 l/m 0,8 km/h (0 Bft) S-SO 8,5 C 12,3 C
01.04.2023 16:00 11,7 C 77 % 1006 hPa 0,0 l/m 0,0 km/h (0 Bft) SW 7,8 C 11,7 C
01.04.2023 17:00 10,8 C 80 % 1006 hPa 0,0 l/m 0,0 km/h (0 Bft) S 7,5 C 10,8 C
01.04.2023 18:00 10,6 C 82 % 1006 hPa 0,0 l/m 0,0 km/h (0 Bft) S 7,6 C 10,6 C
01.04.2023 19:00 9,9 C 83 % 1007 hPa 0,5 l/m 0,0 km/h (0 Bft) S-SO 7,2 C 9,9 C
01.04.2023 20:00 8,5 C 85 % 1008 hPa 0,5 l/m 0,0 km/h (0 Bft) S-SO 6,1 C 8,5 C
01.04.2023 21:00 8,1 C 87 % 1009 hPa 0,0 l/m 0,0 km/h (0 Bft) S-SO 6,0 C 8,1 C
01.04.2023 22:00 8,0 C 89 % 1010 hPa 0,0 l/m 0,0 km/h (0 Bft) N 6,3 C 8,0 C
01.04.2023 23:00 7,8 C 90 % 1010 hPa 0,0 l/m 0,0 km/h (0 Bft) N 6,3 C 7,8 C
02.04.2023 00:00 7,8 C 91 % 1011 hPa 0,5 l/m 0,0 km/h (0 Bft) N-NO 6,5 C 7,8 C
02.04.2023 01:00 6,9 C 91 % 1012 hPa 0,5 l/m 1,7 km/h (1 Bft) N 5,6 C 6,8 C
02.04.2023 02:00 5,6 C 92 % 1013 hPa 0,0 l/m 3,2 km/h (1 Bft) N 4,3 C 5,1 C
02.04.2023 03:00 4,5 C 92 % 1014 hPa 0,0 l/m 2,5 km/h (1 Bft) N 3,3 C 4,4 C
02.04.2023 04:00 3,8 C 92 % 1015 hPa 0,5 l/m 3,5 km/h (1 Bft) N 2,6 C 3,1 C
02.04.2023 05:00 3,1 C 93 % 1016 hPa 0,0 l/m 6,6 km/h (2 Bft) S 2,0 C 1,3 C
02.04.2023 06:00 2,7 C 93 % 1017 hPa 0,0 l/m 5,6 km/h (1 Bft) N-NW 1,7 C 0,8 C
02.04.2023 07:00 2,3 C 92 % 1018 hPa 0,5 l/m 2,1 km/h (1 Bft) N-NO 1,2 C 2,3 C
02.04.2023 08:00 2,1 C 93 % 1020 hPa 0,0 l/m 2,1 km/h (1 Bft) N-NO 1,1 C 2,1 C
02.04.2023 09:00 2,0 C 93 % 1021 hPa 0,0 l/m 4,4 km/h (1 Bft) N 1,0 C 1,4 C
02.04.2023 10:00 1,8 C 93 % 1022 hPa 0,0 l/m 1,8 km/h (1 Bft) N-NW 0,8 C 1,8 C
02.04.2023 11:00 1,8 C 93 % 1023 hPa 0,0 l/m 4,3 km/h (1 Bft) N 0,8 C 1,0 C
02.04.2023 12:00 2,3 C 92 % 1024 hPa 0,0 l/m 0,0 km/h (0 Bft) NW 1,0 C 2,3 C
02.04.2023 13:00 2,6 C 90 % 1025 hPa 0,0 l/m 1,0 km/h (0 Bft) NW 1,1 C 2,6 C
02.04.2023 14:00 3,0 C 88 % 1026 hPa 0,0 l/m 4,5 km/h (1 Bft) N 1,2 C 1,7 C
02.04.2023 15:00 3,6 C 86 % 1026 hPa 0,0 l/m 0,5 km/h (0 Bft) N-NO 1,5 C 3,6 C
02.04.2023 16:00 4,0 C 84 % 1027 hPa 0,0 l/m 0,0 km/h (0 Bft) N-NO 1,6 C 4,0 C
02.04.2023 17:00 4,5 C 82 % 1027 hPa 0,0 l/m 2,5 km/h (1 Bft) N 1,7 C 3,9 C
02.04.2023 18:00 4,8 C 80 % 1028 hPa 0,0 l/m 0,1 km/h (0 Bft) O-SO 1,6 C 4,8 C
02.04.2023 19:00 4,2 C 80 % 1028 hPa 0,0 l/m 0,4 km/h (0 Bft) O-SO 1,0 C 4,2 C
02.04.2023 20:00 3,3 C 80 % 1029 hPa 0,0 l/m 0,0 km/h (0 Bft) O-SO 0,2 C 3,3 C
02.04.2023 21:00 3,0 C 82 % 1030 hPa 0,0 l/m 0,0 km/h (0 Bft) O-NO 0,2 C 3,0 C
02.04.2023 22:00 3,2 C 82 % 1030 hPa 0,0 l/m 0,0 km/h (0 Bft) N 0,4 C 3,2 C
02.04.2023 23:00 3,2 C 81 % 1031 hPa 0,0 l/m 3,4 km/h (1 Bft) N-NO 0,3 C 2,3 C
Min-Datum _ 27.03.23 30.03.23 31.03.23 - 02.04.23 - 28.03.23 27.03.23
_ Min-Zeit 23:02 16:02 18:02 - 23:12 - 21:42 02:02
Minimum _ 0,0 C 57 % 1002 hPa - 0,0 km/h (0 Bft) - -3,0 C -7,9 C
Max-Datum _ 30.03.23 02.04.23 02.04.23 31.03.23 27.03.23 - 30.03.23 30.03.23
_ Max-Zeit 15:52 11:02 23:02 12:02 02:02 - 13:02 15:52
Maximum _ 17,6 C 93 % 1031 hPa 1,6 l/m 26,3 km/h
N (4 Bft)
- 10,9 C 17,6 C
Durchschnitt _ 6,8 C 80 % 1016 hPa #14,5 l/m 1,2 km/h (1 Bft) W-NW 3,5 C 6,5 C